sensor_id;sensor_type;location;lat;lon;timestamp;P1;durP1;ratioP1;P2;durP2;ratioP2
36303;SDS011;22335;49.800;8.596;2024-02-26T00:04:49;14.60;;;13.70;;
36303;SDS011;22335;49.800;8.596;2024-02-26T00:11:32;15.10;;;14.30;;
36303;SDS011;22335;49.800;8.596;2024-02-26T00:18:18;14.80;;;13.90;;
36303;SDS011;22335;49.800;8.596;2024-02-26T00:25:02;15.05;;;14.15;;
36303;SDS011;22335;49.800;8.596;2024-02-26T00:31:47;14.75;;;13.85;;
36303;SDS011;22335;49.800;8.596;2024-02-26T00:38:32;15.07;;;14.10;;
36303;SDS011;22335;49.800;8.596;2024-02-26T00:45:16;15.80;;;14.90;;
36303;SDS011;22335;49.800;8.596;2024-02-26T00:52:00;15.10;;;14.30;;
36303;SDS011;22335;49.800;8.596;2024-02-26T00:58:45;14.60;;;13.80;;
36303;SDS011;22335;49.800;8.596;2024-02-26T01:05:28;15.57;;;14.57;;
36303;SDS011;22335;49.800;8.596;2024-02-26T01:12:12;14.60;;;13.80;;
36303;SDS011;22335;49.800;8.596;2024-02-26T01:18:57;15.00;;;14.20;;
36303;SDS011;22335;49.800;8.596;2024-02-26T01:25:40;14.30;;;13.50;;
36303;SDS011;22335;49.800;8.596;2024-02-26T01:32:24;14.70;;;13.90;;
36303;SDS011;22335;49.800;8.596;2024-02-26T01:39:09;15.02;;;14.18;;
36303;SDS011;22335;49.800;8.596;2024-02-26T01:45:54;15.77;;;14.98;;
36303;SDS011;22335;49.800;8.596;2024-02-26T01:52:38;16.13;;;15.23;;
36303;SDS011;22335;49.800;8.596;2024-02-26T01:59:23;15.90;;;15.00;;
36303;SDS011;22335;49.800;8.596;2024-02-26T02:06:07;16.42;;;15.52;;
36303;SDS011;22335;49.800;8.596;2024-02-26T02:12:51;15.80;;;14.75;;
36303;SDS011;22335;49.800;8.596;2024-02-26T02:19:36;15.43;;;14.50;;
36303;SDS011;22335;49.800;8.596;2024-02-26T02:26:21;15.90;;;15.00;;
36303;SDS011;22335;49.800;8.596;2024-02-26T02:33:05;16.65;;;15.68;;
36303;SDS011;22335;49.800;8.596;2024-02-26T02:39:49;16.15;;;15.30;;
36303;SDS011;22335;49.800;8.596;2024-02-26T02:46:36;16.58;;;15.68;;
36303;SDS011;22335;49.800;8.596;2024-02-26T02:53:20;15.55;;;14.65;;
36303;SDS011;22335;49.800;8.596;2024-02-26T03:00:04;15.63;;;14.73;;
36303;SDS011;22335;49.800;8.596;2024-02-26T03:06:51;16.90;;;15.90;;
36303;SDS011;22335;49.800;8.596;2024-02-26T03:13:34;16.08;;;14.93;;
36303;SDS011;22335;49.800;8.596;2024-02-26T03:20:18;18.30;;;17.00;;
36303;SDS011;22335;49.800;8.596;2024-02-26T03:27:03;17.80;;;16.45;;
36303;SDS011;22335;49.800;8.596;2024-02-26T03:33:50;16.23;;;15.13;;
36303;SDS011;22335;49.800;8.596;2024-02-26T03:40:34;17.40;;;16.33;;
36303;SDS011;22335;49.800;8.596;2024-02-26T04:03:36;16.27;;;15.27;;
36303;SDS011;22335;49.800;8.596;2024-02-26T04:10:20;16.20;;;15.23;;
36303;SDS011;22335;49.800;8.596;2024-02-26T04:17:04;16.27;;;15.25;;
36303;SDS011;22335;49.800;8.596;2024-02-26T04:23:49;17.13;;;16.13;;
36303;SDS011;22335;49.800;8.596;2024-02-26T04:30:36;17.70;;;16.30;;
36303;SDS011;22335;49.800;8.596;2024-02-26T04:37:19;16.98;;;15.80;;
36303;SDS011;22335;49.800;8.596;2024-02-26T04:44:04;16.65;;;15.55;;
36303;SDS011;22335;49.800;8.596;2024-02-26T04:50:48;18.33;;;17.08;;
36303;SDS011;22335;49.800;8.596;2024-02-26T04:57:32;16.65;;;15.55;;
36303;SDS011;22335;49.800;8.596;2024-02-26T05:04:16;16.27;;;15.20;;
36303;SDS011;22335;49.800;8.596;2024-02-26T05:11:00;17.38;;;16.38;;
36303;SDS011;22335;49.800;8.596;2024-02-26T05:17:44;16.50;;;15.50;;
36303;SDS011;22335;49.800;8.596;2024-02-26T05:24:29;16.80;;;15.80;;
36303;SDS011;22335;49.800;8.596;2024-02-26T05:31:12;17.50;;;16.50;;
36303;SDS011;22335;49.800;8.596;2024-02-26T05:37:56;17.38;;;16.30;;
36303;SDS011;22335;49.800;8.596;2024-02-26T05:44:41;17.88;;;16.73;;
36303;SDS011;22335;49.800;8.596;2024-02-26T05:51:24;18.90;;;17.70;;
36303;SDS011;22335;49.800;8.596;2024-02-26T05:58:08;17.30;;;16.20;;
36303;SDS011;22335;49.800;8.596;2024-02-26T06:04:53;16.45;;;15.55;;
36303;SDS011;22335;49.800;8.596;2024-02-26T06:11:36;16.25;;;15.18;;
36303;SDS011;22335;49.800;8.596;2024-02-26T06:18:20;15.90;;;15.00;;
36303;SDS011;22335;49.800;8.596;2024-02-26T06:25:05;16.90;;;15.90;;
36303;SDS011;22335;49.800;8.596;2024-02-26T06:31:49;16.33;;;15.40;;
36303;SDS011;22335;49.800;8.596;2024-02-26T06:38:33;15.90;;;15.00;;
36303;SDS011;22335;49.800;8.596;2024-02-26T06:45:18;16.73;;;15.63;;
36303;SDS011;22335;49.800;8.596;2024-02-26T06:52:02;17.05;;;15.80;;
36303;SDS011;22335;49.800;8.596;2024-02-26T06:58:47;17.52;;;16.42;;
36303;SDS011;22335;49.800;8.596;2024-02-26T07:05:32;17.83;;;16.63;;
36303;SDS011;22335;49.800;8.596;2024-02-26T07:12:16;18.38;;;17.00;;
36303;SDS011;22335;49.800;8.596;2024-02-26T07:19:01;18.10;;;17.10;;
36303;SDS011;22335;49.800;8.596;2024-02-26T07:25:46;17.60;;;16.50;;
36303;SDS011;22335;49.800;8.596;2024-02-26T07:32:31;17.45;;;16.42;;
36303;SDS011;22335;49.800;8.596;2024-02-26T07:39:14;18.50;;;17.40;;
36303;SDS011;22335;49.800;8.596;2024-02-26T07:45:59;18.75;;;17.55;;
36303;SDS011;22335;49.800;8.596;2024-02-26T07:52:44;17.92;;;16.73;;
36303;SDS011;22335;49.800;8.596;2024-02-26T07:59:27;19.58;;;18.20;;
36303;SDS011;22335;49.800;8.596;2024-02-26T08:06:12;18.83;;;17.63;;
36303;SDS011;22335;49.800;8.596;2024-02-26T08:12:56;19.50;;;18.20;;
36303;SDS011;22335;49.800;8.596;2024-02-26T08:19:46;18.52;;;17.42;;
36303;SDS011;22335;49.800;8.596;2024-02-26T08:26:31;19.02;;;17.90;;
36303;SDS011;22335;49.800;8.596;2024-02-26T08:33:14;17.98;;;16.77;;
36303;SDS011;22335;49.800;8.596;2024-02-26T08:39:58;18.10;;;16.90;;
36303;SDS011;22335;49.800;8.596;2024-02-26T08:46:44;18.45;;;17.35;;
36303;SDS011;22335;49.800;8.596;2024-02-26T08:53:28;19.65;;;18.35;;
36303;SDS011;22335;49.800;8.596;2024-02-26T09:00:12;19.20;;;17.80;;
36303;SDS011;22335;49.800;8.596;2024-02-26T09:06:58;19.80;;;18.33;;
36303;SDS011;22335;49.800;8.596;2024-02-26T09:13:41;19.40;;;18.00;;
36303;SDS011;22335;49.800;8.596;2024-02-26T09:20:25;20.58;;;19.17;;
36303;SDS011;22335;49.800;8.596;2024-02-26T09:27:09;23.60;;;21.60;;
36303;SDS011;22335;49.800;8.596;2024-02-26T09:33:53;20.73;;;19.33;;
36303;SDS011;22335;49.800;8.596;2024-02-26T09:40:39;20.33;;;18.92;;
36303;SDS011;22335;49.800;8.596;2024-02-26T09:47:24;20.13;;;18.63;;
36303;SDS011;22335;49.800;8.596;2024-02-26T09:54:09;19.70;;;18.30;;
36303;SDS011;22335;49.800;8.596;2024-02-26T10:00:56;21.25;;;19.55;;
36303;SDS011;22335;49.800;8.596;2024-02-26T10:07:43;19.63;;;18.23;;
36303;SDS011;22335;49.800;8.596;2024-02-26T10:14:28;19.00;;;17.70;;
36303;SDS011;22335;49.800;8.596;2024-02-26T10:21:11;21.92;;;20.23;;
36303;SDS011;22335;49.800;8.596;2024-02-26T10:27:56;19.10;;;17.85;;
36303;SDS011;22335;49.800;8.596;2024-02-26T10:34:44;18.63;;;17.27;;
36303;SDS011;22335;49.800;8.596;2024-02-26T10:41:27;18.58;;;17.27;;
36303;SDS011;22335;49.800;8.596;2024-02-26T10:48:12;18.05;;;16.80;;
36303;SDS011;22335;49.800;8.596;2024-02-26T10:54:58;17.52;;;16.50;;
36303;SDS011;22335;49.800;8.596;2024-02-26T11:01:44;17.23;;;15.98;;
36303;SDS011;22335;49.800;8.596;2024-02-26T11:08:29;18.80;;;17.05;;
36303;SDS011;22335;49.800;8.596;2024-02-26T11:15:15;19.67;;;18.17;;
36303;SDS011;22335;49.800;8.596;2024-02-26T11:22:00;17.35;;;16.15;;
36303;SDS011;22335;49.800;8.596;2024-02-26T11:28:47;18.02;;;16.80;;
36303;SDS011;22335;49.800;8.596;2024-02-26T11:35:32;16.70;;;15.60;;
36303;SDS011;22335;49.800;8.596;2024-02-26T11:42:16;16.80;;;15.70;;
36303;SDS011;22335;49.800;8.596;2024-02-26T11:49:02;16.92;;;15.88;;
36303;SDS011;22335;49.800;8.596;2024-02-26T11:56:13;17.10;;;16.00;;
36303;SDS011;22335;49.800;8.596;2024-02-26T12:03:08;16.80;;;15.50;;
36303;SDS011;22335;49.800;8.596;2024-02-26T12:09:56;17.27;;;16.15;;
36303;SDS011;22335;49.800;8.596;2024-02-26T12:16:59;16.92;;;15.73;;
36303;SDS011;22335;49.800;8.596;2024-02-26T12:23:43;17.75;;;16.55;;
36303;SDS011;22335;49.800;8.596;2024-02-26T12:30:28;17.65;;;16.45;;
36303;SDS011;22335;49.800;8.596;2024-02-26T12:37:14;16.42;;;15.32;;
36303;SDS011;22335;49.800;8.596;2024-02-26T12:43:58;17.70;;;16.50;;
36303;SDS011;22335;49.800;8.596;2024-02-26T12:50:45;16.60;;;15.50;;
36303;SDS011;22335;49.800;8.596;2024-02-26T12:57:29;16.45;;;15.35;;
36303;SDS011;22335;49.800;8.596;2024-02-26T13:04:14;18.00;;;16.70;;
36303;SDS011;22335;49.800;8.596;2024-02-26T13:11:00;17.48;;;16.27;;
36303;SDS011;22335;49.800;8.596;2024-02-26T13:17:44;17.83;;;16.63;;
36303;SDS011;22335;49.800;8.596;2024-02-26T13:24:28;17.40;;;16.10;;
36303;SDS011;22335;49.800;8.596;2024-02-26T13:31:13;17.83;;;16.50;;
36303;SDS011;22335;49.800;8.596;2024-02-26T13:37:57;17.88;;;16.60;;
36303;SDS011;22335;49.800;8.596;2024-02-26T13:44:40;17.15;;;15.95;;
36303;SDS011;22335;49.800;8.596;2024-02-26T13:51:25;17.08;;;15.98;;
36303;SDS011;22335;49.800;8.596;2024-02-26T13:58:11;16.23;;;15.20;;
36303;SDS011;22335;49.800;8.596;2024-02-26T14:04:56;17.80;;;16.60;;
36303;SDS011;22335;49.800;8.596;2024-02-26T14:11:40;17.55;;;16.33;;
36303;SDS011;22335;49.800;8.596;2024-02-26T14:18:25;17.60;;;16.27;;
36303;SDS011;22335;49.800;8.596;2024-02-26T14:25:09;17.00;;;15.70;;
36303;SDS011;22335;49.800;8.596;2024-02-26T14:31:54;17.13;;;15.70;;
36303;SDS011;22335;49.800;8.596;2024-02-26T14:38:38;17.27;;;16.08;;
36303;SDS011;22335;49.800;8.596;2024-02-26T14:45:21;17.80;;;16.50;;
36303;SDS011;22335;49.800;8.596;2024-02-26T14:52:06;18.15;;;16.75;;
36303;SDS011;22335;49.800;8.596;2024-02-26T14:58:51;17.63;;;16.23;;
36303;SDS011;22335;49.800;8.596;2024-02-26T15:05:39;17.33;;;16.02;;
36303;SDS011;22335;49.800;8.596;2024-02-26T15:12:23;17.85;;;16.50;;
36303;SDS011;22335;49.800;8.596;2024-02-26T15:19:12;17.13;;;15.93;;
36303;SDS011;22335;49.800;8.596;2024-02-26T15:25:56;18.05;;;16.75;;
36303;SDS011;22335;49.800;8.596;2024-02-26T15:32:41;18.15;;;16.80;;
36303;SDS011;22335;49.800;8.596;2024-02-26T15:39:25;16.80;;;15.60;;
36303;SDS011;22335;49.800;8.596;2024-02-26T15:46:08;17.27;;;15.80;;
36303;SDS011;22335;49.800;8.596;2024-02-26T15:52:53;18.75;;;17.30;;
36303;SDS011;22335;49.800;8.596;2024-02-26T15:59:37;16.88;;;15.77;;
36303;SDS011;22335;49.800;8.596;2024-02-26T16:06:21;16.58;;;15.48;;
36303;SDS011;22335;49.800;8.596;2024-02-26T16:13:15;16.52;;;15.32;;
36303;SDS011;22335;49.800;8.596;2024-02-26T16:20:00;17.63;;;16.30;;
36303;SDS011;22335;49.800;8.596;2024-02-26T16:26:47;16.92;;;15.55;;
36303;SDS011;22335;49.800;8.596;2024-02-26T16:33:31;17.70;;;16.25;;
36303;SDS011;22335;49.800;8.596;2024-02-26T16:40:15;18.88;;;17.30;;
36303;SDS011;22335;49.800;8.596;2024-02-26T16:46:58;18.70;;;17.13;;
36303;SDS011;22335;49.800;8.596;2024-02-26T16:53:43;17.05;;;15.85;;
36303;SDS011;22335;49.800;8.596;2024-02-26T17:00:27;20.15;;;18.55;;
36303;SDS011;22335;49.800;8.596;2024-02-26T17:07:10;18.13;;;16.75;;
36303;SDS011;22335;49.800;8.596;2024-02-26T17:13:55;17.85;;;16.55;;
36303;SDS011;22335;49.800;8.596;2024-02-26T17:20:39;17.02;;;15.73;;
36303;SDS011;22335;49.800;8.596;2024-02-26T17:27:22;17.13;;;15.80;;
36303;SDS011;22335;49.800;8.596;2024-02-26T17:34:07;17.77;;;16.48;;
36303;SDS011;22335;49.800;8.596;2024-02-26T17:40:52;17.73;;;16.33;;
36303;SDS011;22335;49.800;8.596;2024-02-26T17:47:35;18.55;;;16.88;;
36303;SDS011;22335;49.800;8.596;2024-02-26T17:54:20;16.80;;;15.70;;
36303;SDS011;22335;49.800;8.596;2024-02-26T18:01:04;17.05;;;15.80;;
36303;SDS011;22335;49.800;8.596;2024-02-26T18:07:47;17.58;;;16.30;;
36303;SDS011;22335;49.800;8.596;2024-02-26T18:14:32;18.92;;;17.42;;
36303;SDS011;22335;49.800;8.596;2024-02-26T18:21:16;18.70;;;17.38;;
36303;SDS011;22335;49.800;8.596;2024-02-26T18:28:02;17.90;;;16.60;;
36303;SDS011;22335;49.800;8.596;2024-02-26T18:34:47;18.30;;;17.00;;
36303;SDS011;22335;49.800;8.596;2024-02-26T18:41:30;17.17;;;15.80;;
36303;SDS011;22335;49.800;8.596;2024-02-26T18:48:14;16.35;;;15.25;;
36303;SDS011;22335;49.800;8.596;2024-02-26T18:54:59;16.58;;;15.27;;
36303;SDS011;22335;49.800;8.596;2024-02-26T19:01:43;16.70;;;15.60;;
36303;SDS011;22335;49.800;8.596;2024-02-26T19:08:26;16.90;;;15.80;;
36303;SDS011;22335;49.800;8.596;2024-02-26T19:15:11;18.52;;;17.10;;
36303;SDS011;22335;49.800;8.596;2024-02-26T19:21:58;17.27;;;16.00;;
36303;SDS011;22335;49.800;8.596;2024-02-26T19:28:41;18.85;;;17.58;;
36303;SDS011;22335;49.800;8.596;2024-02-26T19:35:27;18.08;;;16.67;;
36303;SDS011;22335;49.800;8.596;2024-02-26T19:42:11;18.52;;;17.23;;
36303;SDS011;22335;49.800;8.596;2024-02-26T19:48:54;18.05;;;16.75;;
36303;SDS011;22335;49.800;8.596;2024-02-26T19:55:41;18.00;;;16.70;;
36303;SDS011;22335;49.800;8.596;2024-02-26T20:02:25;17.70;;;16.50;;
36303;SDS011;22335;49.800;8.596;2024-02-26T20:09:08;17.33;;;16.02;;
36303;SDS011;22335;49.800;8.596;2024-02-26T20:15:54;18.58;;;17.27;;
36303;SDS011;22335;49.800;8.596;2024-02-26T20:22:37;18.50;;;16.88;;
36303;SDS011;22335;49.800;8.596;2024-02-26T20:29:21;16.85;;;15.82;;
36303;SDS011;22335;49.800;8.596;2024-02-26T20:36:07;16.85;;;15.63;;
36303;SDS011;22335;49.800;8.596;2024-02-26T20:42:51;18.10;;;16.90;;
36303;SDS011;22335;49.800;8.596;2024-02-26T20:49:35;17.73;;;16.42;;
36303;SDS011;22335;49.800;8.596;2024-02-26T20:56:21;18.63;;;17.40;;
36303;SDS011;22335;49.800;8.596;2024-02-26T21:03:04;18.08;;;16.88;;
36303;SDS011;22335;49.800;8.596;2024-02-26T21:09:49;17.65;;;16.45;;
36303;SDS011;22335;49.800;8.596;2024-02-26T21:16:35;17.95;;;16.65;;
36303;SDS011;22335;49.800;8.596;2024-02-26T21:23:19;19.20;;;17.80;;
36303;SDS011;22335;49.800;8.596;2024-02-26T21:30:03;18.10;;;16.90;;
36303;SDS011;22335;49.800;8.596;2024-02-26T21:36:50;19.48;;;17.88;;
36303;SDS011;22335;49.800;8.596;2024-02-26T21:43:33;20.17;;;18.70;;
36303;SDS011;22335;49.800;8.596;2024-02-26T21:50:18;19.90;;;18.50;;
36303;SDS011;22335;49.800;8.596;2024-02-26T21:57:04;20.92;;;19.40;;
36303;SDS011;22335;49.800;8.596;2024-02-26T22:03:47;20.58;;;19.08;;
36303;SDS011;22335;49.800;8.596;2024-02-26T22:10:31;22.13;;;20.35;;
36303;SDS011;22335;49.800;8.596;2024-02-26T22:17:15;21.90;;;20.20;;
36303;SDS011;22335;49.800;8.596;2024-02-26T22:24:01;22.10;;;20.45;;
36303;SDS011;22335;49.800;8.596;2024-02-26T22:30:45;22.42;;;20.67;;
36303;SDS011;22335;49.800;8.596;2024-02-26T22:37:30;23.27;;;21.25;;
36303;SDS011;22335;49.800;8.596;2024-02-26T22:44:14;24.27;;;22.27;;
36303;SDS011;22335;49.800;8.596;2024-02-26T22:50:57;24.70;;;22.60;;
36303;SDS011;22335;49.800;8.596;2024-02-26T22:57:42;24.95;;;22.75;;
36303;SDS011;22335;49.800;8.596;2024-02-26T23:04:26;25.45;;;23.05;;
36303;SDS011;22335;49.800;8.596;2024-02-26T23:11:10;26.60;;;24.23;;
36303;SDS011;22335;49.800;8.596;2024-02-26T23:17:54;25.63;;;23.50;;
36303;SDS011;22335;49.800;8.596;2024-02-26T23:24:38;26.40;;;23.80;;
36303;SDS011;22335;49.800;8.596;2024-02-26T23:31:21;27.05;;;24.65;;
36303;SDS011;22335;49.800;8.596;2024-02-26T23:38:07;27.08;;;24.58;;
36303;SDS011;22335;49.800;8.596;2024-02-26T23:44:50;26.60;;;24.30;;
36303;SDS011;22335;49.800;8.596;2024-02-26T23:51:34;27.27;;;24.60;;
36303;SDS011;22335;49.800;8.596;2024-02-26T23:58:20;28.00;;;25.50;;
